Time;durP1;ratioP1;P1;durP2;ratioP2;P2;SDS_P1;SDS_P2;PMS_P1;PMS_P2;Temp;Humidity;BMP_temperature;BMP_pressure;BME280_temperature;BME280_humidity;BME280_pressure;Samples;Min_cycle;Max_cycle;Signal;HPM_P1;HPM_P2
2024/04/24 00:00:03;;;;;;;8.33;7.50;;;6.40;92.50;;;;;;5258778;27;20331;-62
2024/04/24 00:02:29;;;;;;;8.27;7.47;;;6.40;92.30;;;;;;5247423;27;20238;-62
2024/04/24 00:05:00;;;;;;;7.60;6.90;;;6.40;92.30;;;;;;5244867;27;20629;-62
2024/04/24 00:07:25;;;;;;;10.97;9.93;;;6.40;92.80;;;;;;5246212;27;20550;-60
2024/04/24 00:09:51;;;;;;;8.00;7.30;;;6.40;93.00;;;;;;5252190;27;20468;-62
2024/04/24 00:12:16;;;;;;;9.23;7.10;;;6.40;93.30;;;;;;5250688;27;20238;-58
2024/04/24 00:14:42;;;;;;;9.00;8.13;;;6.40;93.40;;;;;;5256269;27;20352;-62
2024/04/24 00:17:07;;;;;;;8.23;7.33;;;6.40;93.60;;;;;;5251257;27;20275;-61
2024/04/24 00:19:33;;;;;;;8.67;7.87;;;6.40;94.20;;;;;;5243894;27;20284;-62
2024/04/24 00:21:59;;;;;;;8.03;7.30;;;6.30;93.90;;;;;;5245306;27;20288;-62
2024/04/24 00:24:24;;;;;;;8.40;7.70;;;6.30;93.80;;;;;;5246983;27;20775;-61
2024/04/24 00:26:50;;;;;;;8.90;7.67;;;6.30;94.10;;;;;;5253343;27;20225;-60
2024/04/24 00:29:15;;;;;;;7.80;7.10;;;6.30;93.60;;;;;;5251333;27;20685;-61
2024/04/24 00:31:41;;;;;;;9.80;9.00;;;6.30;93.50;;;;;;5262593;27;20249;-61
2024/04/24 00:34:07;;;;;;;8.10;7.30;;;6.20;93.50;;;;;;5251708;27;20737;-61
2024/04/24 00:36:33;;;;;;;8.50;7.60;;;6.20;93.60;;;;;;5243890;27;20233;-61
2024/04/24 00:38:58;;;;;;;7.63;6.93;;;6.20;93.80;;;;;;5246755;27;20707;-61
2024/04/24 00:41:24;;;;;;;7.77;7.17;;;6.20;93.70;;;;;;5247706;27;20351;-61
2024/04/24 00:43:49;;;;;;;8.00;7.30;;;6.10;93.70;;;;;;5254200;27;20229;-62
2024/04/24 00:46:16;;;;;;;7.80;7.00;;;6.10;93.60;;;;;;5252791;27;20309;-59
2024/04/24 00:48:43;;;;;;;5.93;5.37;;;6.10;93.50;;;;;;5259895;27;20228;-62
2024/04/24 00:51:10;;;;;;;5.20;4.70;;;6.10;93.60;;;;;;5242347;27;20605;-62
2024/04/24 00:53:36;;;;;;;6.77;6.13;;;6.10;93.90;;;;;;5245441;27;20672;-62
2024/04/24 00:56:04;;;;;;;6.63;5.60;;;6.10;94.00;;;;;;5247662;27;20461;-61
2024/04/24 00:58:30;;;;;;;6.07;5.47;;;6.10;94.10;;;;;;5244279;27;20532;-59
2024/04/24 01:00:56;;;;;;;6.33;5.83;;;6.10;94.00;;;;;;5255687;27;20469;-61
2024/04/24 01:03:22;;;;;;;5.20;4.70;;;6.10;94.10;;;;;;5252933;27;20461;-62
2024/04/24 01:05:48;;;;;;;6.87;5.70;;;6.10;93.90;;;;;;5254514;27;20474;-62
2024/04/24 01:08:14;;;;;;;6.30;5.70;;;6.20;93.60;;;;;;5243095;27;20971;-62
2024/04/24 01:10:39;;;;;;;6.50;5.70;;;6.10;93.50;;;;;;5246673;27;20341;-60
2024/04/24 01:13:05;;;;;;;5.23;4.83;;;6.20;93.50;;;;;;5248291;27;20232;-63
2024/04/24 01:15:32;;;;;;;8.47;5.50;;;6.20;93.80;;;;;;5249342;27;20247;-60
2024/04/24 01:18:00;;;;;;;6.77;5.10;;;6.20;93.50;;;;;;5256555;27;20232;-60
2024/04/24 01:20:27;;;;;;;5.47;4.90;;;6.20;93.20;;;;;;5246513;27;20857;-59
2024/04/24 01:22:58;;;;;;;6.10;4.30;;;6.20;93.30;;;;;;5242414;27;20516;-59
2024/04/24 01:25:28;;;;;;;4.63;4.20;;;6.20;93.50;;;;;;5244128;27;20526;-58
2024/04/24 01:27:53;;;;;;;5.83;5.30;;;6.30;93.80;;;;;;5249144;27;20532;-63
2024/04/24 01:30:19;;;;;;;6.93;5.60;;;6.30;93.30;;;;;;5248224;27;20476;-60
2024/04/24 01:32:45;;;;;;;5.23;4.73;;;6.30;93.20;;;;;;5261292;27;20233;-60
2024/04/24 01:35:10;;;;;;;5.10;4.60;;;6.20;93.00;;;;;;5254749;27;20279;-58
2024/04/24 01:37:36;;;;;;;6.87;4.20;;;6.20;92.70;;;;;;5255195;27;20225;-61
2024/04/24 01:40:01;;;;;;;5.43;4.60;;;6.20;92.80;;;;;;5267513;27;20225;-63
2024/04/24 01:42:27;;;;;;;5.37;4.50;;;6.20;93.10;;;;;;5265176;27;20225;-62
2024/04/24 01:44:53;;;;;;;5.97;4.23;;;6.20;93.70;;;;;;5259075;27;20280;-61
2024/04/24 01:47:18;;;;;;;4.07;3.53;;;6.20;93.40;;;;;;5259011;27;20255;-61
2024/04/24 01:49:44;;;;;;;4.10;3.67;;;6.30;93.40;;;;;;5255700;27;20331;-61
2024/04/24 01:52:10;;;;;;;5.20;4.60;;;6.30;93.30;;;;;;5260051;27;20229;-61
2024/04/24 01:54:35;;;;;;;4.27;3.87;;;6.30;93.20;;;;;;5268233;27;20318;-60
2024/04/24 01:57:01;;;;;;;4.07;3.40;;;6.30;93.40;;;;;;5265264;27;20619;-61
2024/04/24 01:59:26;;;;;;;6.30;4.63;;;6.30;93.50;;;;;;5262314;27;20610;-56
2024/04/24 02:01:52;;;;;;;4.50;3.93;;;6.30;94.10;;;;;;5259774;27;20251;-61
2024/04/24 02:04:18;;;;;;;5.50;3.70;;;6.20;94.50;;;;;;5262783;27;20364;-62
2024/04/24 02:06:43;;;;;;;4.90;4.43;;;6.20;94.80;;;;;;5258050;27;20276;-61
2024/04/24 02:09:09;;;;;;;6.07;5.50;;;6.20;94.80;;;;;;5267974;27;20696;-60
2024/04/24 02:11:34;;;;;;;4.23;3.63;;;6.20;94.90;;;;;;5270444;27;20288;-63
2024/04/24 02:14:00;;;;;;;5.10;3.93;;;6.20;94.90;;;;;;5266351;27;20716;-63
2024/04/24 02:16:26;;;;;;;4.27;3.87;;;6.20;95.10;;;;;;5266133;27;20224;-59
2024/04/24 02:18:51;;;;;;;6.53;4.47;;;6.10;95.20;;;;;;5260025;27;20221;-61
2024/04/24 02:21:17;;;;;;;5.73;3.67;;;6.10;95.20;;;;;;5260197;27;20241;-59
2024/04/24 02:23:43;;;;;;;3.63;3.37;;;6.10;95.50;;;;;;5253001;27;20309;-61
2024/04/24 02:26:09;;;;;;;4.10;3.57;;;6.00;95.40;;;;;;5271823;27;20238;-61
2024/04/24 02:28:35;;;;;;;4.20;3.40;;;6.10;95.40;;;;;;5269209;27;20727;-60
2024/04/24 02:31:01;;;;;;;3.70;3.30;;;6.00;95.30;;;;;;5264616;27;20493;-57
2024/04/24 02:33:27;;;;;;;4.60;2.97;;;6.10;95.10;;;;;;5262426;27;20569;-62
2024/04/24 02:35:53;;;;;;;5.00;3.40;;;6.00;95.20;;;;;;5259172;27;20740;-61
2024/04/24 02:38:18;;;;;;;3.90;3.43;;;6.00;94.90;;;;;;5259082;27;20268;-62
2024/04/24 02:40:44;;;;;;;5.37;3.80;;;6.00;94.90;;;;;;5258430;27;20839;-63
2024/04/24 02:43:09;;;;;;;4.07;3.70;;;5.90;95.10;;;;;;5270670;27;20264;-60
2024/04/24 02:45:35;;;;;;;6.13;3.60;;;5.90;95.40;;;;;;5268178;27;20692;-54
2024/04/24 02:48:01;;;;;;;3.90;3.60;;;5.80;95.70;;;;;;5262390;27;20337;-60
2024/04/24 02:50:27;;;;;;;5.37;4.27;;;5.80;95.80;;;;;;5257402;27;20284;-59
2024/04/24 02:52:53;;;;;;;4.20;3.70;;;5.70;95.80;;;;;;5257595;27;20789;-61
2024/04/24 02:55:18;;;;;;;4.27;3.53;;;5.70;96.10;;;;;;5255015;27;20470;-59
2024/04/24 02:57:44;;;;;;;4.60;3.37;;;5.70;96.40;;;;;;5266047;27;20571;-61
2024/04/24 03:00:10;;;;;;;3.93;3.53;;;5.70;96.50;;;;;;5266125;27;20233;-60
2024/04/24 03:02:36;;;;;;;3.00;2.80;;;5.70;96.60;;;;;;5266743;27;20225;-56
2024/04/24 03:05:02;;;;;;;4.93;3.77;;;5.70;96.90;;;;;;5251411;27;20488;-60
2024/04/24 03:07:28;;;;;;;3.83;3.50;;;5.70;97.00;;;;;;5262528;27;20857;-61
2024/04/24 03:09:54;;;;;;;8.80;3.43;;;5.60;97.00;;;;;;5256066;27;20463;-61
2024/04/24 03:12:20;;;;;;;4.30;3.70;;;5.60;97.00;;;;;;5256573;27;20994;-59
2024/04/24 03:14:46;;;;;;;4.07;3.67;;;5.70;97.20;;;;;;5268346;27;20463;-58
2024/04/24 03:17:12;;;;;;;4.20;3.20;;;5.50;97.10;;;;;;5267769;27;20659;-60
2024/04/24 03:19:38;;;;;;;4.03;3.63;;;5.50;97.30;;;;;;5264987;27;20852;-62
2024/04/24 03:22:03;;;;;;;3.93;3.60;;;5.50;97.40;;;;;;5259141;27;20264;-62
2024/04/24 03:24:29;;;;;;;5.73;3.00;;;5.50;97.70;;;;;;5261661;27;20225;-60
2024/04/24 03:26:55;;;;;;;4.10;3.70;;;5.50;97.80;;;;;;5259204;27;20267;-62
2024/04/24 03:29:20;;;;;;;4.90;3.70;;;5.60;98.00;;;;;;5271074;27;20268;-62
2024/04/24 03:31:46;;;;;;;3.70;3.33;;;5.60;97.90;;;;;;5262776;27;20234;-60
2024/04/24 03:34:11;;;;;;;7.47;3.70;;;5.60;97.80;;;;;;5265921;27;20230;-61
2024/04/24 03:36:37;;;;;;;6.40;4.30;;;5.70;97.80;;;;;;5264722;27;20347;-62
2024/04/24 03:39:03;;;;;;;3.60;3.30;;;5.70;97.70;;;;;;5257186;27;20291;-62
2024/04/24 03:41:29;;;;;;;4.23;3.93;;;5.70;97.40;;;;;;5260381;27;20233;-62
2024/04/24 03:43:54;;;;;;;4.23;3.83;;;5.70;97.30;;;;;;5264410;27;20963;-62
2024/04/24 03:46:20;;;;;;;6.17;4.03;;;5.70;97.40;;;;;;5270004;27;20459;-63
2024/04/24 03:48:46;;;;;;;4.60;3.60;;;5.80;97.30;;;;;;5266111;27;20468;-63
2024/04/24 03:51:11;;;;;;;3.87;3.33;;;5.80;97.50;;;;;;5264042;27;20764;-62
2024/04/24 03:53:37;;;;;;;4.67;3.07;;;5.80;97.30;;;;;;5263095;27;20335;-62
2024/04/24 03:56:03;;;;;;;3.23;2.93;;;5.80;96.90;;;;;;5256140;27;20226;-58
2024/04/24 03:58:29;;;;;;;4.30;3.90;;;5.80;96.60;;;;;;5258503;27;20233;-62
2024/04/24 04:00:54;;;;;;;5.37;4.33;;;5.80;96.30;;;;;;5268251;27;20237;-62
2024/04/24 04:03:20;;;;;;;3.03;2.73;;;5.80;96.30;;;;;;5268596;27;20229;-62
2024/04/24 04:05:45;;;;;;;4.33;3.40;;;5.80;96.10;;;;;;5265762;27;20240;-62
2024/04/24 04:08:12;;;;;;;4.10;3.70;;;5.80;96.30;;;;;;5262313;27;20272;-62
2024/04/24 04:10:38;;;;;;;4.60;3.43;;;5.80;96.30;;;;;;5262151;27;21028;-63
2024/04/24 04:13:03;;;;;;;4.03;3.30;;;5.80;96.80;;;;;;5255078;27;20241;-61
2024/04/24 04:15:29;;;;;;;5.37;3.50;;;5.80;96.90;;;;;;5264077;27;20603;-60
2024/04/24 04:17:54;;;;;;;3.60;3.30;;;5.80;96.50;;;;;;5268290;27;20309;-62
2024/04/24 04:20:20;;;;;;;4.17;3.77;;;5.80;96.70;;;;;;5267810;27;20263;-62
2024/04/24 04:22:45;;;;;;;3.80;3.40;;;5.80;96.70;;;;;;5263457;27;20233;-62
2024/04/24 04:25:11;;;;;;;5.87;3.70;;;5.80;96.90;;;;;;5260592;27;20350;-58
2024/04/24 04:27:37;;;;;;;5.90;4.10;;;5.80;96.90;;;;;;5260548;27;20236;-60
2024/04/24 04:30:02;;;;;;;3.63;3.33;;;5.80;96.90;;;;;;5254142;27;20264;-62
2024/04/24 04:32:28;;;;;;;3.50;3.10;;;5.80;97.00;;;;;;5262973;27;20371;-62
2024/04/24 04:34:54;;;;;;;6.27;4.43;;;5.80;97.20;;;;;;5266906;27;20245;-62
2024/04/24 04:37:19;;;;;;;4.17;3.77;;;5.90;97.00;;;;;;5266535;27;20695;-60
2024/04/24 04:39:45;;;;;;;4.17;3.70;;;5.80;96.60;;;;;;5263004;27;20242;-61
2024/04/24 04:42:11;;;;;;;6.17;3.90;;;5.90;96.40;;;;;;5258233;27;20309;-61
2024/04/24 04:44:36;;;;;;;4.57;3.60;;;5.80;96.50;;;;;;5260002;27;20285;-61
2024/04/24 04:47:02;;;;;;;4.50;3.97;;;5.90;96.90;;;;;;5250593;27;20284;-62
2024/04/24 04:49:28;;;;;;;3.97;3.63;;;5.90;96.50;;;;;;5269523;27;20229;-59
2024/04/24 04:51:53;;;;;;;5.13;4.00;;;5.90;96.20;;;;;;5265427;27;20610;-61
2024/04/24 04:54:19;;;;;;;5.53;5.03;;;6.10;96.10;;;;;;5250531;27;20899;-61
2024/04/24 04:56:45;;;;;;;4.53;4.13;;;6.10;96.00;;;;;;5255417;27;20228;-62
2024/04/24 04:59:11;;;;;;;4.17;3.77;;;6.20;96.40;;;;;;5242107;27;20250;-61
2024/04/24 05:01:36;;;;;;;4.90;4.43;;;6.30;96.30;;;;;;5239485;27;20676;-61
2024/04/24 05:04:02;;;;;;;5.77;5.17;;;6.30;96.40;;;;;;5240659;27;20276;-59
2024/04/24 05:06:28;;;;;;;4.93;4.43;;;6.30;96.50;;;;;;5245872;27;20346;-62
2024/04/24 05:08:53;;;;;;;4.90;4.40;;;6.40;96.50;;;;;;5252740;27;20241;-61
2024/04/24 05:11:19;;;;;;;4.53;4.13;;;6.40;96.20;;;;;;5245346;27;20301;-63
2024/04/24 05:13:44;;;;;;;4.20;3.90;;;6.60;95.90;;;;;;5248904;27;20687;-61
2024/04/24 05:16:13;;;;;;;5.43;3.70;;;6.60;95.60;;;;;;5253879;27;20510;-61
2024/04/24 05:18:39;;;;;;;5.33;4.27;;;6.70;95.20;;;;;;5254901;27;20397;-63
2024/04/24 05:21:08;;;;;;;6.10;4.47;;;6.80;95.30;;;;;;5239075;27;20465;-63
2024/04/24 05:23:33;;;;;;;5.80;4.37;;;6.80;95.20;;;;;;5247401;27;20969;-63
2024/04/24 05:29:03;;;;;;;4.10;3.70;;;6.80;95.20;;;;;;5239354;27;20588;-63
2024/04/24 05:29:04;;;;;;;7.03;4.20;;;6.90;94.70;;;;;;5238731;27;20237;-63
2024/04/24 05:31:30;;;;;;;6.43;3.60;;;7.10;93.90;;;;;;5239040;27;20470;-61
2024/04/24 05:33:56;;;;;;;4.83;3.67;;;7.30;93.40;;;;;;5244363;27;20858;-61
2024/04/24 05:36:22;;;;;;;5.30;4.80;;;7.30;93.60;;;;;;5241823;27;20508;-56
2024/04/24 05:38:47;;;;;;;5.37;4.90;;;7.50;93.10;;;;;;5259615;27;20246;-53
2024/04/24 05:41:13;;;;;;;6.87;4.60;;;7.70;92.90;;;;;;5249204;27;20600;-56
2024/04/24 05:43:38;;;;;;;8.40;5.00;;;7.40;92.60;;;;;;5255256;27;20623;-59
2024/04/24 05:46:04;;;;;;;8.47;4.60;;;7.80;93.70;;;;;;5244244;27;20234;-50
2024/04/24 05:48:30;;;;;;;5.13;4.63;;;8.10;92.40;;;;;;5249219;27;20541;-51
2024/04/24 05:50:55;;;;;;;5.67;4.83;;;8.00;91.80;;;;;;5259312;27;20248;-52
2024/04/24 05:53:21;;;;;;;6.03;4.20;;;8.20;91.80;;;;;;5258593;27;20272;-58
2024/04/24 05:55:46;;;;;;;4.93;3.97;;;7.90;91.20;;;;;;5254957;27;20309;-59
2024/04/24 05:58:12;;;;;;;4.70;4.20;;;7.60;91.90;;;;;;5250076;27;20239;-53
2024/04/24 06:00:38;;;;;;;7.70;5.13;;;7.60;92.40;;;;;;5253477;27;20383;-56
2024/04/24 06:03:04;;;;;;;5.70;4.17;;;7.70;92.90;;;;;;5243898;27;20284;-56
2024/04/24 06:05:29;;;;;;;4.43;3.90;;;8.00;92.60;;;;;;5247652;27;20286;-55
2024/04/24 06:07:55;;;;;;;4.97;4.47;;;8.40;91.20;;;;;;5254496;27;20231;-59
2024/04/24 06:10:21;;;;;;;6.73;5.93;;;8.50;91.10;;;;;;5254705;27;20231;-59
2024/04/24 06:12:47;;;;;;;4.80;4.10;;;8.20;90.40;;;;;;5252775;27;20491;-59
2024/04/24 06:15:12;;;;;;;4.87;4.47;;;8.10;91.50;;;;;;5249309;27;20229;-55
2024/04/24 06:17:38;;;;;;;7.63;4.53;;;8.40;91.90;;;;;;5248097;27;20275;-57
2024/04/24 06:20:04;;;;;;;4.73;4.20;;;8.60;90.40;;;;;;5242981;27;20280;-55
2024/04/24 06:22:30;;;;;;;4.60;4.20;;;8.30;90.50;;;;;;5253411;27;20303;-53
2024/04/24 06:24:55;;;;;;;4.93;4.47;;;8.40;90.50;;;;;;5261955;27;20584;-55
2024/04/24 06:27:21;;;;;;;6.30;4.70;;;8.40;90.90;;;;;;5263379;27;21008;-51
2024/04/24 06:29:47;;;;;;;5.63;4.80;;;8.60;90.80;;;;;;5263315;27;20272;-55
2024/04/24 06:32:13;;;;;;;5.83;5.23;;;8.50;90.30;;;;;;5256958;27;21021;-55
2024/04/24 06:34:38;;;;;;;4.60;4.17;;;8.50;91.20;;;;;;5254030;27;20327;-57
2024/04/24 06:37:05;;;;;;;6.10;4.93;;;8.50;91.10;;;;;;5254234;27;20239;-56
2024/04/24 06:39:31;;;;;;;5.70;5.03;;;8.60;90.40;;;;;;5261867;27;20629;-50
2024/04/24 06:41:57;;;;;;;4.90;4.27;;;8.80;90.40;;;;;;5263189;27;20622;-57
2024/04/24 06:44:22;;;;;;;5.13;4.67;;;9.00;89.10;;;;;;5252572;27;20276;-57
2024/04/24 06:46:48;;;;;;;5.80;5.13;;;8.90;89.70;;;;;;5254598;27;20228;-60
2024/04/24 06:49:13;;;;;;;5.20;4.70;;;8.80;89.70;;;;;;5244724;27;20237;-50
2024/04/24 06:51:39;;;;;;;6.00;5.00;;;8.90;90.70;;;;;;5241149;27;20724;-61
2024/04/24 06:54:05;;;;;;;5.93;4.60;;;9.10;88.20;;;;;;5256781;27;20831;-56
2024/04/24 06:56:30;;;;;;;8.20;4.87;;;8.90;88.10;;;;;;5251280;27;20272;-56
2024/04/24 06:58:56;;;;;;;6.27;4.67;;;8.90;89.10;;;;;;5267570;27;20382;-59
2024/04/24 07:01:21;;;;;;;5.23;4.80;;;8.80;86.70;;;;;;5240876;27;20227;-56
2024/04/24 07:03:47;;;;;;;11.00;5.67;;;9.00;87.70;;;;;;5241037;27;20225;-53
2024/04/24 07:06:13;;;;;;;5.23;4.73;;;8.90;88.70;;;;;;5254277;27;20232;-58
2024/04/24 07:08:40;;;;;;;6.57;4.67;;;9.00;86.60;;;;;;5259948;27;20286;-59
2024/04/24 07:11:05;;;;;;;8.20;5.30;;;9.10;88.10;;;;;;5262197;27;20288;-57
2024/04/24 07:13:31;;;;;;;4.87;4.37;;;9.30;85.70;;;;;;5240790;27;20544;-59
2024/04/24 07:15:57;;;;;;;9.90;5.17;;;9.50;82.80;;;;;;5240531;27;20678;-56
2024/04/24 07:18:22;;;;;;;5.27;4.40;;;9.90;84.30;;;;;;5240777;27;20326;-56
2024/04/24 07:20:48;;;;;;;5.77;5.20;;;9.90;80.90;;;;;;5240939;27;20237;-56
2024/04/24 07:23:15;;;;;;;6.40;5.03;;;10.00;81.40;;;;;;5240045;27;20324;-57
2024/04/24 07:25:41;;;;;;;5.63;4.30;;;10.40;77.20;;;;;;5240842;27;20277;-59
2024/04/24 07:28:06;;;;;;;6.00;4.80;;;10.30;75.60;;;;;;5240716;27;20480;-54
2024/04/24 07:30:32;;;;;;;5.00;4.60;;;11.40;73.80;;;;;;5240740;27;20340;-58
2024/04/24 07:32:57;;;;;;;5.40;4.30;;;11.90;68.30;;;;;;5240859;27;20254;-55
2024/04/24 07:35:23;;;;;;;3.97;3.57;;;12.00;66.70;;;;;;5240927;27;20226;-56
2024/04/24 07:37:49;;;;;;;6.83;4.23;;;11.90;63.60;;;;;;5240877;27;20234;-52
2024/04/24 07:40:14;;;;;;;4.67;4.10;;;12.00;68.80;;;;;;5240563;27;20264;-56
2024/04/24 07:42:40;;;;;;;4.70;4.27;;;11.90;67.40;;;;;;5211453;27;20228;-56
2024/04/24 07:45:07;;;;;;;5.17;4.20;;;12.00;63.20;;;;;;5244468;27;20223;-60
2024/04/24 07:47:32;;;;;;;8.40;4.20;;;12.00;63.80;;;;;;5250758;27;20720;-57
2024/04/24 07:49:58;;;;;;;5.47;4.63;;;12.20;65.00;;;;;;5240389;27;20464;-56
2024/04/24 07:52:23;;;;;;;5.23;3.80;;;12.10;60.80;;;;;;5240364;27;20235;-56
2024/04/24 07:54:49;;;;;;;4.40;4.00;;;11.70;60.50;;;;;;5240504;27;20543;-55
2024/04/24 07:57:15;;;;;;;5.00;4.50;;;11.90;63.70;;;;;;5247742;27;20226;-56
2024/04/24 07:59:40;;;;;;;3.80;3.50;;;12.10;61.40;;;;;;5239895;27;20236;-56
2024/04/24 08:02:06;;;;;;;4.20;3.80;;;11.90;58.90;;;;;;5240638;27;20235;-59
2024/04/24 08:04:31;;;;;;;3.80;3.40;;;11.80;57.20;;;;;;5240669;27;20241;-59
2024/04/24 08:06:57;;;;;;;3.90;3.50;;;11.60;60.70;;;;;;5239914;27;20277;-51
2024/04/24 08:09:22;;;;;;;4.23;3.53;;;11.50;58.70;;;;;;5240444;27;20225;-54
2024/04/24 08:11:48;;;;;;;3.07;2.87;;;11.50;57.60;;;;;;5240066;27;20230;-56
2024/04/24 08:14:14;;;;;;;3.83;3.43;;;11.60;57.60;;;;;;5240044;27;20689;-59
2024/04/24 08:16:39;;;;;;;3.83;3.20;;;11.90;55.90;;;;;;5240731;27;20231;-52
2024/04/24 08:19:05;;;;;;;4.53;4.13;;;12.00;55.90;;;;;;5211733;27;20276;-55
2024/04/24 08:21:30;;;;;;;4.50;4.10;;;12.60;55.00;;;;;;5242386;27;20321;-56
2024/04/24 08:23:56;;;;;;;5.07;4.20;;;11.70;56.00;;;;;;5240908;27;20327;-57
2024/04/24 08:26:22;;;;;;;4.77;3.57;;;11.90;58.00;;;;;;5240308;27;20301;-51
2024/04/24 08:28:47;;;;;;;4.13;3.73;;;11.30;57.90;;;;;;5240422;27;20260;-52
2024/04/24 08:31:13;;;;;;;4.83;4.33;;;11.50;61.00;;;;;;5240273;27;20569;-59
2024/04/24 08:33:39;;;;;;;6.57;4.50;;;10.90;59.80;;;;;;5240116;27;20226;-55
2024/04/24 08:36:06;;;;;;;3.87;3.43;;;10.90;62.00;;;;;;5240062;27;20237;-55
2024/04/24 08:38:32;;;;;;;5.53;4.70;;;11.30;61.60;;;;;;5240467;27;20233;-55
2024/04/24 08:41:05;;;;;;;4.30;3.57;;;11.40;61.60;;;;;;5239873;27;20474;-56
2024/04/24 08:43:31;;;;;;;5.67;4.50;;;11.50;57.00;;;;;;5239978;27;20481;-55
2024/04/24 08:46:02;;;;;;;4.50;4.10;;;11.90;58.50;;;;;;5239866;27;20574;-52
2024/04/24 08:48:29;;;;;;;4.80;4.40;;;11.90;59.60;;;;;;5239850;27;20606;-58
2024/04/24 08:50:57;;;;;;;4.93;4.53;;;12.20;56.40;;;;;;5249551;27;20484;-61
2024/04/24 08:53:28;;;;;;;5.80;5.07;;;11.90;56.60;;;;;;5239892;27;20797;-55
2024/04/24 08:55:54;;;;;;;5.40;4.73;;;12.10;55.60;;;;;;5240228;27;20680;-55
2024/04/24 08:58:24;;;;;;;7.63;4.63;;;11.80;56.90;;;;;;5249201;27;20469;-56
2024/04/24 09:00:51;;;;;;;5.20;4.70;;;11.90;58.00;;;;;;5246280;27;20479;-51
2024/04/24 09:03:26;;;;;;;6.83;4.23;;;12.00;57.10;;;;;;5240662;27;20587;-51
2024/04/24 09:05:54;;;;;;;6.30;5.27;;;12.10;57.80;;;;;;5239942;27;20789;-53
2024/04/24 09:08:21;;;;;;;10.00;4.23;;;12.10;57.50;;;;;;5239975;27;20466;-52
2024/04/24 09:10:49;;;;;;;5.10;4.70;;;12.10;58.60;;;;;;5239864;27;20474;-50
2024/04/24 09:13:15;;;;;;;4.90;4.40;;;12.10;59.60;;;;;;5245686;27;20508;-50
2024/04/24 09:15:42;;;;;;;4.87;4.07;;;12.00;57.70;;;;;;5251634;27;20468;-55
2024/04/24 09:18:09;;;;;;;5.30;4.27;;;12.10;59.50;;;;;;5257627;27;20262;-56
2024/04/24 09:20:39;;;;;;;4.37;3.97;;;11.50;59.70;;;;;;5258608;27;20870;-57
2024/04/24 09:23:08;;;;;;;6.57;4.67;;;11.30;61.30;;;;;;5255926;27;20519;-54
2024/04/24 09:25:36;;;;;;;4.33;3.90;;;11.10;61.90;;;;;;5255742;27;20525;-54
2024/04/24 09:28:02;;;;;;;4.97;3.57;;;11.40;61.20;;;;;;5256520;27;20479;-60
2024/04/24 09:30:29;;;;;;;4.80;3.77;;;11.60;61.80;;;;;;5268225;27;20535;-54
2024/04/24 09:32:56;;;;;;;5.87;4.53;;;11.50;61.20;;;;;;5256804;27;20537;-52
2024/04/24 09:35:22;;;;;;;5.90;4.20;;;11.60;60.90;;;;;;5261347;27;20529;-57
2024/04/24 09:37:48;;;;;;;5.17;3.63;;;11.70;61.20;;;;;;5267216;27;20476;-57
2024/04/24 09:40:14;;;;;;;6.90;3.90;;;11.80;61.10;;;;;;5256655;27;20478;-65
2024/04/24 09:42:40;;;;;;;5.00;4.50;;;11.60;61.10;;;;;;5253570;27;20473;-54
2024/04/24 09:45:08;;;;;;;6.30;5.00;;;11.60;63.30;;;;;;5264370;27;20599;-56
2024/04/24 09:47:34;;;;;;;5.40;4.90;;;11.40;62.30;;;;;;5264960;27;20548;-58
2024/04/24 09:49:59;;;;;;;5.27;4.53;;;11.60;63.80;;;;;;5264721;27;20553;-53
2024/04/24 09:52:25;;;;;;;4.83;4.43;;;11.00;63.50;;;;;;5259368;27;20289;-57
2024/04/24 09:54:52;;;;;;;5.57;5.07;;;11.10;66.00;;;;;;5261343;27;20233;-53
2024/04/24 09:57:21;;;;;;;5.73;4.73;;;11.00;63.50;;;;;;5247476;27;20724;-59
2024/04/24 09:59:53;;;;;;;8.07;5.90;;;11.10;66.50;;;;;;5255753;27;20519;-56
2024/04/24 10:02:22;;;;;;;6.00;5.40;;;11.70;69.40;;;;;;5252680;27;20533;-56
2024/04/24 10:04:54;;;;;;;6.40;5.70;;;12.00;63.40;;;;;;5239035;27;20465;-55
2024/04/24 10:07:21;;;;;;;7.93;6.90;;;12.10;60.80;;;;;;5238712;27;20551;-55
2024/04/24 10:09:49;;;;;;;7.00;6.03;;;12.00;62.30;;;;;;5238996;27;20469;-54
2024/04/24 10:12:17;;;;;;;6.93;6.17;;;12.40;61.70;;;;;;5238751;27;20895;-57
2024/04/24 10:14:58;;;;;;;8.57;7.57;;;12.90;62.10;;;;;;5239087;27;20529;-52
2024/04/24 10:17:24;;;;;;;7.90;6.47;;;12.70;58.30;;;;;;5238648;27;20517;-55
2024/04/24 10:19:51;;;;;;;7.83;7.03;;;13.40;59.80;;;;;;5238663;27;20533;-54
2024/04/24 10:22:19;;;;;;;7.40;6.60;;;13.20;59.50;;;;;;5240603;27;20760;-54
2024/04/24 10:24:47;;;;;;;7.67;6.90;;;12.50;59.10;;;;;;5241893;27;20477;-58
2024/04/24 10:27:15;;;;;;;7.47;6.77;;;12.70;60.20;;;;;;5242116;27;20585;-56
2024/04/24 10:29:42;;;;;;;15.30;7.63;;;13.10;58.40;;;;;;5242069;27;20475;-57
2024/04/24 10:32:11;;;;;;;8.20;7.40;;;13.50;57.80;;;;;;5246010;27;20521;-56
2024/04/24 10:34:37;;;;;;;7.93;7.13;;;12.40;60.70;;;;;;5249280;27;20524;-57
2024/04/24 10:37:03;;;;;;;8.87;8.03;;;12.30;60.40;;;;;;5255748;27;20796;-55
2024/04/24 10:39:28;;;;;;;7.60;6.20;;;12.20;60.90;;;;;;5240957;27;20477;-56
2024/04/24 10:41:54;;;;;;;7.57;6.60;;;12.30;63.00;;;;;;5242217;27;20239;-57
2024/04/24 10:44:19;;;;;;;8.60;7.70;;;12.10;63.30;;;;;;5241886;27;20361;-56
2024/04/24 10:46:45;;;;;;;9.37;7.67;;;11.70;63.00;;;;;;5241593;27;20226;-56
2024/04/24 10:49:11;;;;;;;9.60;8.07;;;11.70;67.10;;;;;;5241195;27;20265;-55
2024/04/24 10:51:46;;;;;;;8.20;7.40;;;11.60;66.20;;;;;;5241203;27;20550;-57
2024/04/24 10:54:15;;;;;;;7.87;7.17;;;11.60;65.70;;;;;;5241153;27;20756;-58
2024/04/24 10:56:42;;;;;;;8.43;7.63;;;11.50;65.60;;;;;;5257213;27;20510;-60
2024/04/24 10:59:07;;;;;;;10.40;8.00;;;11.60;66.70;;;;;;5250627;27;20516;-55
2024/04/24 11:01:33;;;;;;;9.83;8.60;;;11.60;64.60;;;;;;5253727;27;20469;-57
2024/04/24 11:04:03;;;;;;;9.27;7.90;;;11.50;64.70;;;;;;5254044;27;20608;-56
2024/04/24 11:06:29;;;;;;;12.37;9.10;;;11.50;65.20;;;;;;5257929;27;20238;-60
2024/04/24 11:08:57;;;;;;;9.47;8.57;;;11.30;65.70;;;;;;5250702;27;20520;-55
2024/04/24 11:11:25;;;;;;;8.47;7.20;;;11.30;66.00;;;;;;5253735;27;20468;-54
2024/04/24 11:14:16;;;;;;;9.83;8.63;;;11.60;67.70;;;;;;5249745;27;20521;-53
2024/04/24 11:16:54;;;;;;;9.87;8.90;;;11.70;65.40;;;;;;5248860;27;20560;-53
2024/04/24 11:19:19;;;;;;;8.90;8.10;;;11.80;61.00;;;;;;5240661;27;20480;-57
2024/04/24 11:21:45;;;;;;;9.00;8.10;;;11.50;60.40;;;;;;5249174;27;20623;-53
2024/04/24 11:24:11;;;;;;;8.70;7.90;;;11.80;63.40;;;;;;5244568;27;20276;-56
2024/04/24 11:26:37;;;;;;;9.30;8.40;;;11.70;59.60;;;;;;5248316;27;20276;-61
2024/04/24 11:29:05;;;;;;;8.10;7.30;;;12.10;59.70;;;;;;5242146;27;20975;-53
2024/04/24 11:31:34;;;;;;;8.13;7.33;;;11.90;59.80;;;;;;5260434;27;20631;-54
2024/04/24 11:34:00;;;;;;;8.67;6.73;;;12.30;62.10;;;;;;5244704;27;20590;-54
2024/04/24 11:36:27;;;;;;;8.77;7.97;;;12.50;60.30;;;;;;5249233;27;20461;-56
2024/04/24 11:38:53;;;;;;;7.73;7.13;;;12.20;58.90;;;;;;5264958;27;20480;-56
2024/04/24 11:41:21;;;;;;;8.30;7.40;;;12.00;59.40;;;;;;5260452;27;20578;-55
2024/04/24 11:43:48;;;;;;;8.67;7.17;;;12.60;58.90;;;;;;5237173;27;20369;-56
2024/04/24 11:46:13;;;;;;;7.27;6.57;;;13.00;57.20;;;;;;5252552;27;20461;-54
2024/04/24 11:48:39;;;;;;;8.13;7.30;;;12.70;57.60;;;;;;5240687;27;20609;-56
2024/04/24 11:51:06;;;;;;;6.70;6.10;;;12.30;56.40;;;;;;5240468;27;20284;-62
2024/04/24 11:53:31;;;;;;;7.50;6.73;;;12.20;58.70;;;;;;5247403;27;20462;-54
2024/04/24 11:55:57;;;;;;;8.60;7.63;;;12.20;58.90;;;;;;5250503;27;21087;-59
2024/04/24 11:58:24;;;;;;;9.23;7.00;;;12.50;59.40;;;;;;5244084;27;20240;-54
2024/04/24 12:00:53;;;;;;;8.37;7.57;;;12.80;63.80;;;;;;5232850;27;20246;-58
2024/04/24 12:03:19;;;;;;;8.00;7.30;;;12.50;56.10;;;;;;5236600;27;20544;-59
2024/04/24 12:05:45;;;;;;;7.87;6.83;;;12.50;55.00;;;;;;5210194;27;20526;-56
2024/04/24 12:08:12;;;;;;;9.40;7.80;;;12.10;55.90;;;;;;5240256;27;20781;-57
2024/04/24 12:10:38;;;;;;;7.80;7.10;;;12.20;58.00;;;;;;5241561;27;20533;-54
2024/04/24 12:13:04;;;;;;;15.43;6.97;;;12.40;58.00;;;;;;5240464;27;20937;-57
2024/04/24 12:15:29;;;;;;;8.40;6.33;;;12.40;59.30;;;;;;5240595;27;20686;-53
2024/04/24 12:17:55;;;;;;;7.00;6.30;;;12.30;59.30;;;;;;5234002;27;20886;-61
2024/04/24 12:20:20;;;;;;;6.70;6.10;;;12.00;56.60;;;;;;5246393;27;20237;-55
2024/04/24 12:22:46;;;;;;;6.87;6.27;;;12.20;57.10;;;;;;5243213;27;20241;-56
2024/04/24 12:25:12;;;;;;;6.93;6.33;;;12.00;55.90;;;;;;5243535;27;20279;-56
2024/04/24 12:27:38;;;;;;;5.93;5.30;;;11.90;56.70;;;;;;5243334;27;20321;-56
2024/04/24 12:30:05;;;;;;;7.23;6.53;;;12.00;55.80;;;;;;5245051;27;20280;-59
2024/04/24 12:32:30;;;;;;;6.20;5.33;;;12.00;55.70;;;;;;5243360;27;20689;-56
2024/04/24 12:34:57;;;;;;;10.07;7.83;;;12.00;55.80;;;;;;5243475;27;20956;-55
2024/04/24 12:37:23;;;;;;;19.47;11.50;;;11.80;56.80;;;;;;5249497;27;20284;-57
2024/04/24 12:39:49;;;;;;;27.70;18.53;;;11.70;59.00;;;;;;5217274;27;20493;-58
2024/04/24 12:42:14;;;;;;;98.73;58.53;;;12.00;60.60;;;;;;5250218;27;20339;-52
2024/04/24 12:44:40;;;;;;;35.27;21.63;;;11.90;60.40;;;;;;5212898;27;20245;-50
2024/04/24 12:47:05;;;;;;;7.80;6.50;;;11.80;58.20;;;;;;5243716;27;20233;-56